Muncie, IN (47302)

05:22 PM EST die 18o February, anno 2018 (GMT -0500)
Ball State University | | Change Station

Elev 968 ft 40.20 °N, 85.41 °W | Updated 19 seconds ago

Serena
Serena
44.0 °F
Feels Like 40 °F
N
7.7
Ventus Variabilis Ventus from Auster
Gusts 12.0 mph

Hodie
High -- | Low -- °F
--% Chance of Precip.
Yesterday
High -- | Low -- °F
Precip. -- in
Pressio 30.19 in
Visibilitas 10.0 milia passuum
Clouds Serena
Frigus Venti 40 °F
Frigus in quo Ros apparet 33 °F
Umor 64%
Rainfall 0.02 in
Snow Depth Not available.
7:30 AM 6:20 PM
Waxing Crescent, 9% visible
METAR KMIE 182153Z 15010KT 10SM CLR 07/M01 A3018 RMK AO2 SLP224 T00721011
Pressio 30.19 in
Visibilitas 10.0 milia passuum
Clouds Serena
Frigus Venti 40 °F
Frigus in quo Ros apparet 33 °F
Umor 64%
Rainfall 0.02 in
Snow Depth Not available.
7:30 AM 6:20 PM
Waxing Crescent, 9% visible
METAR KMIE 182153Z 15010KT 10SM CLR 07/M01 A3018 RMK AO2 SLP224 T00721011

Get Severe Weather Alerts

Thanks for signing up!

Be on the lookout for a verification email in your inbox.

You'll start receiving the daily forecast at 6 AM.

×

10-Day Weather Forecast

Almanac

Astronomy

Feb. 18, 2018 Rise Set
Actual Time
Civil Twilight
Nautical Twilight
Astronomical Twilight
Moon
Length Of Visible Light
Length of Day
Tomorrow will be .
, % of the Moon is Illuminated

Today's Extremes

State Highs State Lows

Community

WunderPhotos

Category 6

Welcome to Category 6. This is the collective home for Weather Underground's featured writeups by Dr. Jeff Masters (right), Bob Henson (left), Chris Burt, and other regular contributors.

Nearby

Air Quality

  Air Quality AQ Index Pollutant
Not available.

Snow Depth

Station Depth Elevation

Earthquake Activity

City Distance Mag. Time & Date
Minimum magnitude displayed is 2.5.

Coastal Water Temperatures

Locus Calor

Stations

Nearby Weather Stations

Station Location Temp Frigus Venti Frigus in quo Ros apparet Umor Ventus Precip. Elev Renovata Type
                   

Watches & Warnings

There are currently no watches in effect.